sensor_id;sensor_type;location;lat;lon;timestamp;P1;durP1;ratioP1;P2;durP2;ratioP2
14300;SDS011;7234;59.306;18.024;2024-02-21T00:02:10;5.40;;;3.63;;
14300;SDS011;7234;59.306;18.024;2024-02-21T00:04:37;4.77;;;3.37;;
14300;SDS011;7234;59.306;18.024;2024-02-21T00:07:07;4.90;;;3.00;;
14300;SDS011;7234;59.306;18.024;2024-02-21T00:09:34;5.83;;;3.93;;
14300;SDS011;7234;59.306;18.024;2024-02-21T00:12:02;5.37;;;3.50;;
14300;SDS011;7234;59.306;18.024;2024-02-21T00:14:30;5.10;;;3.20;;
14300;SDS011;7234;59.306;18.024;2024-02-21T00:16:59;5.10;;;3.57;;
14300;SDS011;7234;59.306;18.024;2024-02-21T00:19:29;4.73;;;3.60;;
14300;SDS011;7234;59.306;18.024;2024-02-21T00:21:56;4.20;;;3.27;;
14300;SDS011;7234;59.306;18.024;2024-02-21T00:24:29;5.53;;;3.67;;
14300;SDS011;7234;59.306;18.024;2024-02-21T00:26:56;6.00;;;3.53;;
14300;SDS011;7234;59.306;18.024;2024-02-21T00:29:26;5.73;;;3.40;;
14300;SDS011;7234;59.306;18.024;2024-02-21T00:31:53;5.67;;;3.93;;
14300;SDS011;7234;59.306;18.024;2024-02-21T00:34:27;5.60;;;3.97;;
14300;SDS011;7234;59.306;18.024;2024-02-21T00:36:54;5.20;;;3.40;;
14300;SDS011;7234;59.306;18.024;2024-02-21T00:39:21;4.17;;;3.00;;
14300;SDS011;7234;59.306;18.024;2024-02-21T00:41:50;4.23;;;3.07;;
14300;SDS011;7234;59.306;18.024;2024-02-21T00:44:17;4.17;;;2.90;;
14300;SDS011;7234;59.306;18.024;2024-02-21T00:46:44;4.13;;;3.07;;
14300;SDS011;7234;59.306;18.024;2024-02-21T00:49:12;3.50;;;2.80;;
14300;SDS011;7234;59.306;18.024;2024-02-21T00:51:43;3.90;;;3.00;;
14300;SDS011;7234;59.306;18.024;2024-02-21T00:54:11;3.80;;;3.17;;
14300;SDS011;7234;59.306;18.024;2024-02-21T00:56:38;4.20;;;2.83;;
14300;SDS011;7234;59.306;18.024;2024-02-21T00:59:05;2.87;;;2.27;;
14300;SDS011;7234;59.306;18.024;2024-02-21T01:01:34;3.93;;;2.80;;
14300;SDS011;7234;59.306;18.024;2024-02-21T01:04:01;4.63;;;2.60;;
14300;SDS011;7234;59.306;18.024;2024-02-21T01:06:28;3.77;;;2.57;;
14300;SDS011;7234;59.306;18.024;2024-02-21T01:08:57;3.60;;;2.53;;
14300;SDS011;7234;59.306;18.024;2024-02-21T01:11:24;4.10;;;2.90;;
14300;SDS011;7234;59.306;18.024;2024-02-21T01:13:51;3.10;;;2.47;;
14300;SDS011;7234;59.306;18.024;2024-02-21T01:16:18;5.37;;;2.80;;
14300;SDS011;7234;59.306;18.024;2024-02-21T01:18:45;4.57;;;2.60;;
14300;SDS011;7234;59.306;18.024;2024-02-21T01:21:12;3.97;;;2.83;;
14300;SDS011;7234;59.306;18.024;2024-02-21T01:23:39;6.50;;;2.63;;
14300;SDS011;7234;59.306;18.024;2024-02-21T01:26:08;4.17;;;2.57;;
14300;SDS011;7234;59.306;18.024;2024-02-21T01:28:38;5.53;;;2.97;;
14300;SDS011;7234;59.306;18.024;2024-02-21T01:31:05;10.00;;;4.83;;
14300;SDS011;7234;59.306;18.024;2024-02-21T01:33:32;8.03;;;2.70;;
14300;SDS011;7234;59.306;18.024;2024-02-21T01:36:00;7.63;;;3.03;;
14300;SDS011;7234;59.306;18.024;2024-02-21T01:38:28;6.83;;;2.90;;
14300;SDS011;7234;59.306;18.024;2024-02-21T01:40:57;5.27;;;3.10;;
14300;SDS011;7234;59.306;18.024;2024-02-21T01:43:26;10.50;;;3.67;;
14300;SDS011;7234;59.306;18.024;2024-02-21T01:45:54;5.33;;;3.07;;
14300;SDS011;7234;59.306;18.024;2024-02-21T01:48:22;6.17;;;3.60;;
14300;SDS011;7234;59.306;18.024;2024-02-21T01:50:54;7.27;;;3.30;;
14300;SDS011;7234;59.306;18.024;2024-02-21T01:53:22;15.80;;;4.33;;
14300;SDS011;7234;59.306;18.024;2024-02-21T01:55:54;7.50;;;4.13;;
14300;SDS011;7234;59.306;18.024;2024-02-21T01:58:22;11.77;;;3.73;;
14300;SDS011;7234;59.306;18.024;2024-02-21T02:00:51;7.20;;;4.03;;
14300;SDS011;7234;59.306;18.024;2024-02-21T02:03:22;9.70;;;4.20;;
14300;SDS011;7234;59.306;18.024;2024-02-21T02:05:55;7.83;;;4.27;;
14300;SDS011;7234;59.306;18.024;2024-02-21T02:08:22;7.17;;;4.30;;
14300;SDS011;7234;59.306;18.024;2024-02-21T02:10:52;8.23;;;4.20;;
14300;SDS011;7234;59.306;18.024;2024-02-21T02:13:20;7.00;;;4.50;;
14300;SDS011;7234;59.306;18.024;2024-02-21T02:15:48;10.27;;;4.13;;
14300;SDS011;7234;59.306;18.024;2024-02-21T02:18:17;11.97;;;4.43;;
14300;SDS011;7234;59.306;18.024;2024-02-21T02:20:45;8.17;;;4.67;;
14300;SDS011;7234;59.306;18.024;2024-02-21T02:23:20;14.43;;;4.97;;
14300;SDS011;7234;59.306;18.024;2024-02-21T02:25:52;7.70;;;4.50;;
14300;SDS011;7234;59.306;18.024;2024-02-21T02:28:19;8.73;;;4.73;;
14300;SDS011;7234;59.306;18.024;2024-02-21T02:30:47;9.23;;;4.70;;
14300;SDS011;7234;59.306;18.024;2024-02-21T02:33:14;12.60;;;5.40;;
14300;SDS011;7234;59.306;18.024;2024-02-21T02:35:43;10.07;;;4.97;;
14300;SDS011;7234;59.306;18.024;2024-02-21T02:38:10;10.43;;;4.83;;
14300;SDS011;7234;59.306;18.024;2024-02-21T02:40:39;11.30;;;5.33;;
14300;SDS011;7234;59.306;18.024;2024-02-21T02:43:07;8.47;;;4.90;;
14300;SDS011;7234;59.306;18.024;2024-02-21T02:45:35;9.50;;;4.83;;
14300;SDS011;7234;59.306;18.024;2024-02-21T02:48:04;9.37;;;4.97;;
14300;SDS011;7234;59.306;18.024;2024-02-21T02:50:32;8.47;;;5.20;;
14300;SDS011;7234;59.306;18.024;2024-02-21T02:52:59;9.03;;;5.10;;
14300;SDS011;7234;59.306;18.024;2024-02-21T02:55:26;6.10;;;4.20;;
14300;SDS011;7234;59.306;18.024;2024-02-21T02:57:54;9.13;;;5.33;;
14300;SDS011;7234;59.306;18.024;2024-02-21T03:00:22;7.93;;;4.57;;
14300;SDS011;7234;59.306;18.024;2024-02-21T03:02:53;10.23;;;5.00;;
14300;SDS011;7234;59.306;18.024;2024-02-21T03:05:23;7.63;;;5.17;;
14300;SDS011;7234;59.306;18.024;2024-02-21T03:07:50;7.40;;;4.67;;
14300;SDS011;7234;59.306;18.024;2024-02-21T03:10:20;7.43;;;4.03;;
14300;SDS011;7234;59.306;18.024;2024-02-21T03:12:47;6.63;;;4.47;;
14300;SDS011;7234;59.306;18.024;2024-02-21T03:15:19;5.60;;;3.83;;
14300;SDS011;7234;59.306;18.024;2024-02-21T03:17:46;4.40;;;2.73;;
14300;SDS011;7234;59.306;18.024;2024-02-21T03:20:13;4.83;;;3.20;;
14300;SDS011;7234;59.306;18.024;2024-02-21T03:22:41;6.80;;;2.97;;
14300;SDS011;7234;59.306;18.024;2024-02-21T03:25:09;4.10;;;2.63;;
14300;SDS011;7234;59.306;18.024;2024-02-21T03:27:36;4.30;;;2.90;;
14300;SDS011;7234;59.306;18.024;2024-02-21T03:30:04;3.07;;;2.20;;
14300;SDS011;7234;59.306;18.024;2024-02-21T03:32:33;3.07;;;2.17;;
14300;SDS011;7234;59.306;18.024;2024-02-21T03:35:00;4.57;;;2.40;;
14300;SDS011;7234;59.306;18.024;2024-02-21T03:37:27;3.23;;;2.53;;
14300;SDS011;7234;59.306;18.024;2024-02-21T03:39:55;4.30;;;2.13;;
14300;SDS011;7234;59.306;18.024;2024-02-21T03:42:25;3.13;;;2.03;;
14300;SDS011;7234;59.306;18.024;2024-02-21T03:44:57;2.97;;;1.80;;
14300;SDS011;7234;59.306;18.024;2024-02-21T03:47:24;2.60;;;1.80;;
14300;SDS011;7234;59.306;18.024;2024-02-21T03:49:53;3.60;;;2.17;;
14300;SDS011;7234;59.306;18.024;2024-02-21T03:52:20;4.93;;;2.17;;
14300;SDS011;7234;59.306;18.024;2024-02-21T03:54:47;4.77;;;2.00;;
14300;SDS011;7234;59.306;18.024;2024-02-21T03:57:14;3.30;;;1.90;;
14300;SDS011;7234;59.306;18.024;2024-02-21T03:59:42;3.53;;;2.17;;
14300;SDS011;7234;59.306;18.024;2024-02-21T04:02:10;2.50;;;2.03;;
14300;SDS011;7234;59.306;18.024;2024-02-21T04:04:37;4.07;;;2.27;;
14300;SDS011;7234;59.306;18.024;2024-02-21T04:07:15;3.63;;;2.23;;
14300;SDS011;7234;59.306;18.024;2024-02-21T04:09:42;3.70;;;2.17;;
14300;SDS011;7234;59.306;18.024;2024-02-21T04:12:09;3.27;;;2.07;;
14300;SDS011;7234;59.306;18.024;2024-02-21T04:14:36;4.97;;;1.90;;
14300;SDS011;7234;59.306;18.024;2024-02-21T04:17:04;4.03;;;2.20;;
14300;SDS011;7234;59.306;18.024;2024-02-21T04:19:32;5.20;;;2.20;;
14300;SDS011;7234;59.306;18.024;2024-02-21T04:21:59;4.23;;;1.80;;
14300;SDS011;7234;59.306;18.024;2024-02-21T04:24:28;4.57;;;2.00;;
14300;SDS011;7234;59.306;18.024;2024-02-21T04:27:01;4.27;;;1.60;;
14300;SDS011;7234;59.306;18.024;2024-02-21T04:29:29;3.60;;;1.80;;
14300;SDS011;7234;59.306;18.024;2024-02-21T04:31:59;4.97;;;2.10;;
14300;SDS011;7234;59.306;18.024;2024-02-21T04:34:27;2.07;;;1.50;;
14300;SDS011;7234;59.306;18.024;2024-02-21T04:36:54;3.23;;;2.20;;
14300;SDS011;7234;59.306;18.024;2024-02-21T04:39:21;4.13;;;2.00;;
14300;SDS011;7234;59.306;18.024;2024-02-21T04:41:50;2.93;;;1.87;;
14300;SDS011;7234;59.306;18.024;2024-02-21T04:44:17;4.63;;;2.00;;
14300;SDS011;7234;59.306;18.024;2024-02-21T04:46:46;3.83;;;2.10;;
14300;SDS011;7234;59.306;18.024;2024-02-21T04:49:13;3.27;;;1.80;;
14300;SDS011;7234;59.306;18.024;2024-02-21T04:51:40;2.27;;;1.33;;
14300;SDS011;7234;59.306;18.024;2024-02-21T04:54:08;5.37;;;1.90;;
14300;SDS011;7234;59.306;18.024;2024-02-21T04:56:35;6.40;;;2.13;;
14300;SDS011;7234;59.306;18.024;2024-02-21T04:59:04;2.50;;;2.03;;
14300;SDS011;7234;59.306;18.024;2024-02-21T05:01:32;4.23;;;1.77;;
14300;SDS011;7234;59.306;18.024;2024-02-21T05:04:02;3.13;;;1.77;;
14300;SDS011;7234;59.306;18.024;2024-02-21T05:06:29;4.47;;;2.20;;
14300;SDS011;7234;59.306;18.024;2024-02-21T05:08:56;4.53;;;1.93;;
14300;SDS011;7234;59.306;18.024;2024-02-21T05:11:23;5.43;;;2.30;;
14300;SDS011;7234;59.306;18.024;2024-02-21T05:13:50;4.60;;;1.83;;
14300;SDS011;7234;59.306;18.024;2024-02-21T05:16:19;5.93;;;2.20;;
14300;SDS011;7234;59.306;18.024;2024-02-21T05:18:49;4.70;;;1.93;;
14300;SDS011;7234;59.306;18.024;2024-02-21T05:21:25;4.57;;;2.20;;
14300;SDS011;7234;59.306;18.024;2024-02-21T05:23:54;2.80;;;1.60;;
14300;SDS011;7234;59.306;18.024;2024-02-21T05:26:21;3.63;;;2.37;;
14300;SDS011;7234;59.306;18.024;2024-02-21T05:28:53;3.90;;;2.00;;
14300;SDS011;7234;59.306;18.024;2024-02-21T05:31:22;3.97;;;2.17;;
14300;SDS011;7234;59.306;18.024;2024-02-21T05:33:49;4.27;;;2.30;;
14300;SDS011;7234;59.306;18.024;2024-02-21T05:36:16;8.90;;;2.33;;
14300;SDS011;7234;59.306;18.024;2024-02-21T05:38:43;4.83;;;2.40;;
14300;SDS011;7234;59.306;18.024;2024-02-21T05:41:10;4.63;;;1.93;;
14300;SDS011;7234;59.306;18.024;2024-02-21T05:43:37;3.57;;;1.90;;
14300;SDS011;7234;59.306;18.024;2024-02-21T05:46:04;3.33;;;1.80;;
14300;SDS011;7234;59.306;18.024;2024-02-21T05:48:33;3.57;;;2.13;;
14300;SDS011;7234;59.306;18.024;2024-02-21T05:51:01;8.37;;;2.93;;
14300;SDS011;7234;59.306;18.024;2024-02-21T05:53:29;4.23;;;2.97;;
14300;SDS011;7234;59.306;18.024;2024-02-21T05:55:56;11.17;;;2.70;;
14300;SDS011;7234;59.306;18.024;2024-02-21T05:58:29;6.10;;;2.67;;
14300;SDS011;7234;59.306;18.024;2024-02-21T06:00:57;6.87;;;2.80;;
14300;SDS011;7234;59.306;18.024;2024-02-21T06:03:24;5.77;;;2.97;;
14300;SDS011;7234;59.306;18.024;2024-02-21T06:05:52;6.80;;;2.90;;
14300;SDS011;7234;59.306;18.024;2024-02-21T06:08:21;6.67;;;3.17;;
14300;SDS011;7234;59.306;18.024;2024-02-21T06:10:48;10.30;;;3.33;;
14300;SDS011;7234;59.306;18.024;2024-02-21T06:13:19;6.67;;;3.17;;
14300;SDS011;7234;59.306;18.024;2024-02-21T06:15:47;9.50;;;3.23;;
14300;SDS011;7234;59.306;18.024;2024-02-21T06:18:18;5.90;;;3.97;;
14300;SDS011;7234;59.306;18.024;2024-02-21T06:20:49;5.53;;;2.97;;
14300;SDS011;7234;59.306;18.024;2024-02-21T06:23:19;8.77;;;3.20;;
14300;SDS011;7234;59.306;18.024;2024-02-21T06:25:49;9.37;;;3.33;;
14300;SDS011;7234;59.306;18.024;2024-02-21T06:28:17;6.80;;;3.63;;
14300;SDS011;7234;59.306;18.024;2024-02-21T06:30:44;8.80;;;3.37;;
14300;SDS011;7234;59.306;18.024;2024-02-21T06:33:16;5.53;;;3.17;;
14300;SDS011;7234;59.306;18.024;2024-02-21T06:35:47;7.63;;;3.20;;
14300;SDS011;7234;59.306;18.024;2024-02-21T06:38:19;6.70;;;3.57;;
14300;SDS011;7234;59.306;18.024;2024-02-21T06:40:46;6.23;;;3.30;;
14300;SDS011;7234;59.306;18.024;2024-02-21T06:43:17;8.07;;;3.67;;
14300;SDS011;7234;59.306;18.024;2024-02-21T06:45:45;6.03;;;3.27;;
14300;SDS011;7234;59.306;18.024;2024-02-21T06:48:16;7.90;;;3.60;;
14300;SDS011;7234;59.306;18.024;2024-02-21T06:50:44;6.87;;;3.60;;
14300;SDS011;7234;59.306;18.024;2024-02-21T06:53:12;8.00;;;3.40;;
14300;SDS011;7234;59.306;18.024;2024-02-21T06:55:40;12.17;;;3.73;;
14300;SDS011;7234;59.306;18.024;2024-02-21T06:58:07;8.13;;;3.57;;
14300;SDS011;7234;59.306;18.024;2024-02-21T07:00:37;10.47;;;4.63;;
14300;SDS011;7234;59.306;18.024;2024-02-21T07:03:04;8.53;;;3.93;;
14300;SDS011;7234;59.306;18.024;2024-02-21T07:05:32;5.70;;;3.40;;
14300;SDS011;7234;59.306;18.024;2024-02-21T07:08:00;10.17;;;3.90;;
14300;SDS011;7234;59.306;18.024;2024-02-21T07:10:28;10.70;;;4.17;;
14300;SDS011;7234;59.306;18.024;2024-02-21T07:12:57;5.03;;;3.50;;
14300;SDS011;7234;59.306;18.024;2024-02-21T07:15:25;7.30;;;3.67;;
14300;SDS011;7234;59.306;18.024;2024-02-21T07:17:54;6.73;;;3.63;;
14300;SDS011;7234;59.306;18.024;2024-02-21T07:20:21;8.07;;;3.70;;
14300;SDS011;7234;59.306;18.024;2024-02-21T07:22:49;8.57;;;4.00;;
14300;SDS011;7234;59.306;18.024;2024-02-21T07:25:16;8.53;;;4.53;;
14300;SDS011;7234;59.306;18.024;2024-02-21T07:27:43;6.70;;;3.90;;
14300;SDS011;7234;59.306;18.024;2024-02-21T07:30:15;8.67;;;4.10;;
14300;SDS011;7234;59.306;18.024;2024-02-21T07:32:43;7.00;;;3.90;;
14300;SDS011;7234;59.306;18.024;2024-02-21T07:35:10;12.17;;;4.20;;
14300;SDS011;7234;59.306;18.024;2024-02-21T07:37:38;9.30;;;4.30;;
14300;SDS011;7234;59.306;18.024;2024-02-21T07:40:05;8.90;;;4.60;;
14300;SDS011;7234;59.306;18.024;2024-02-21T07:42:40;6.37;;;3.83;;
14300;SDS011;7234;59.306;18.024;2024-02-21T07:45:07;7.33;;;3.80;;
14300;SDS011;7234;59.306;18.024;2024-02-21T07:47:36;7.63;;;4.00;;
14300;SDS011;7234;59.306;18.024;2024-02-21T07:50:04;10.13;;;4.23;;
14300;SDS011;7234;59.306;18.024;2024-02-21T07:52:32;14.10;;;4.40;;
14300;SDS011;7234;59.306;18.024;2024-02-21T07:55:02;10.10;;;4.00;;
14300;SDS011;7234;59.306;18.024;2024-02-21T07:57:29;9.87;;;4.67;;
14300;SDS011;7234;59.306;18.024;2024-02-21T07:59:56;10.27;;;4.00;;
14300;SDS011;7234;59.306;18.024;2024-02-21T08:02:23;11.73;;;4.23;;
14300;SDS011;7234;59.306;18.024;2024-02-21T08:04:52;10.50;;;4.33;;
14300;SDS011;7234;59.306;18.024;2024-02-21T08:07:19;9.50;;;3.97;;
14300;SDS011;7234;59.306;18.024;2024-02-21T08:09:47;6.57;;;3.70;;
14300;SDS011;7234;59.306;18.024;2024-02-21T08:12:14;5.90;;;3.67;;
14300;SDS011;7234;59.306;18.024;2024-02-21T08:14:41;8.93;;;4.20;;
14300;SDS011;7234;59.306;18.024;2024-02-21T08:17:09;8.57;;;4.13;;
14300;SDS011;7234;59.306;18.024;2024-02-21T08:19:36;9.53;;;3.57;;
14300;SDS011;7234;59.306;18.024;2024-02-21T08:22:06;9.13;;;4.20;;
14300;SDS011;7234;59.306;18.024;2024-02-21T08:24:36;9.57;;;4.17;;
14300;SDS011;7234;59.306;18.024;2024-02-21T08:27:05;13.53;;;3.57;;
14300;SDS011;7234;59.306;18.024;2024-02-21T08:29:32;9.13;;;3.90;;
14300;SDS011;7234;59.306;18.024;2024-02-21T08:32:01;10.73;;;4.10;;
14300;SDS011;7234;59.306;18.024;2024-02-21T08:34:29;8.73;;;3.90;;
14300;SDS011;7234;59.306;18.024;2024-02-21T08:36:59;8.63;;;3.87;;
14300;SDS011;7234;59.306;18.024;2024-02-21T08:39:28;10.53;;;4.83;;
14300;SDS011;7234;59.306;18.024;2024-02-21T08:41:56;11.13;;;4.13;;
14300;SDS011;7234;59.306;18.024;2024-02-21T08:44:23;9.60;;;4.00;;
14300;SDS011;7234;59.306;18.024;2024-02-21T08:46:51;10.03;;;4.30;;
14300;SDS011;7234;59.306;18.024;2024-02-21T08:49:19;14.07;;;4.97;;
14300;SDS011;7234;59.306;18.024;2024-02-21T08:51:46;11.53;;;4.47;;
14300;SDS011;7234;59.306;18.024;2024-02-21T08:54:16;10.77;;;4.37;;
14300;SDS011;7234;59.306;18.024;2024-02-21T08:56:48;9.47;;;4.27;;
14300;SDS011;7234;59.306;18.024;2024-02-21T08:59:15;14.63;;;4.50;;
14300;SDS011;7234;59.306;18.024;2024-02-21T09:01:43;10.17;;;4.30;;
14300;SDS011;7234;59.306;18.024;2024-02-21T09:04:12;9.33;;;4.67;;
14300;SDS011;7234;59.306;18.024;2024-02-21T09:06:43;11.33;;;4.20;;
14300;SDS011;7234;59.306;18.024;2024-02-21T09:09:11;6.87;;;4.07;;
14300;SDS011;7234;59.306;18.024;2024-02-21T09:11:40;7.63;;;4.10;;
14300;SDS011;7234;59.306;18.024;2024-02-21T09:14:09;10.37;;;4.20;;
14300;SDS011;7234;59.306;18.024;2024-02-21T09:16:37;11.33;;;5.07;;
14300;SDS011;7234;59.306;18.024;2024-02-21T09:19:04;16.23;;;4.43;;
14300;SDS011;7234;59.306;18.024;2024-02-21T09:21:32;10.00;;;4.37;;
14300;SDS011;7234;59.306;18.024;2024-02-21T09:23:59;11.63;;;4.47;;
14300;SDS011;7234;59.306;18.024;2024-02-21T09:26:27;7.87;;;4.20;;
14300;SDS011;7234;59.306;18.024;2024-02-21T09:28:54;13.17;;;4.50;;
14300;SDS011;7234;59.306;18.024;2024-02-21T09:31:26;9.50;;;3.87;;
14300;SDS011;7234;59.306;18.024;2024-02-21T09:33:53;7.97;;;3.73;;
14300;SDS011;7234;59.306;18.024;2024-02-21T09:36:22;6.53;;;3.17;;
14300;SDS011;7234;59.306;18.024;2024-02-21T09:38:52;9.07;;;3.07;;
14300;SDS011;7234;59.306;18.024;2024-02-21T09:41:22;7.60;;;3.20;;
14300;SDS011;7234;59.306;18.024;2024-02-21T09:43:52;6.73;;;3.50;;
14300;SDS011;7234;59.306;18.024;2024-02-21T09:46:24;7.70;;;3.50;;
14300;SDS011;7234;59.306;18.024;2024-02-21T09:49:05;6.80;;;3.10;;
14300;SDS011;7234;59.306;18.024;2024-02-21T09:51:49;5.27;;;3.03;;
14300;SDS011;7234;59.306;18.024;2024-02-21T09:54:20;3.90;;;2.53;;
14300;SDS011;7234;59.306;18.024;2024-02-21T09:56:48;8.03;;;2.93;;
14300;SDS011;7234;59.306;18.024;2024-02-21T09:59:15;5.97;;;3.03;;
14300;SDS011;7234;59.306;18.024;2024-02-21T10:01:44;7.30;;;2.63;;
14300;SDS011;7234;59.306;18.024;2024-02-21T10:04:14;5.87;;;2.67;;
14300;SDS011;7234;59.306;18.024;2024-02-21T10:06:41;6.80;;;3.03;;
14300;SDS011;7234;59.306;18.024;2024-02-21T10:09:19;5.27;;;2.50;;
14300;SDS011;7234;59.306;18.024;2024-02-21T10:11:48;6.13;;;2.13;;
14300;SDS011;7234;59.306;18.024;2024-02-21T10:14:15;4.83;;;2.57;;
14300;SDS011;7234;59.306;18.024;2024-02-21T10:16:45;5.43;;;2.53;;
14300;SDS011;7234;59.306;18.024;2024-02-21T10:19:18;4.03;;;2.33;;
14300;SDS011;7234;59.306;18.024;2024-02-21T10:21:58;3.90;;;2.83;;
14300;SDS011;7234;59.306;18.024;2024-02-21T10:24:28;5.03;;;2.50;;
14300;SDS011;7234;59.306;18.024;2024-02-21T10:26:59;4.17;;;2.33;;
14300;SDS011;7234;59.306;18.024;2024-02-21T10:29:29;3.33;;;2.07;;
14300;SDS011;7234;59.306;18.024;2024-02-21T10:32:05;3.83;;;2.10;;
14300;SDS011;7234;59.306;18.024;2024-02-21T10:34:33;4.93;;;2.57;;
14300;SDS011;7234;59.306;18.024;2024-02-21T10:37:01;4.87;;;2.27;;
14300;SDS011;7234;59.306;18.024;2024-02-21T10:39:29;5.50;;;2.60;;
14300;SDS011;7234;59.306;18.024;2024-02-21T10:41:59;4.20;;;1.90;;
14300;SDS011;7234;59.306;18.024;2024-02-21T10:44:29;3.67;;;2.10;;
14300;SDS011;7234;59.306;18.024;2024-02-21T10:46:57;4.93;;;2.10;;
14300;SDS011;7234;59.306;18.024;2024-02-21T10:49:29;4.80;;;2.27;;
14300;SDS011;7234;59.306;18.024;2024-02-21T10:52:12;4.50;;;2.07;;
14300;SDS011;7234;59.306;18.024;2024-02-21T10:54:44;2.40;;;1.83;;
14300;SDS011;7234;59.306;18.024;2024-02-21T10:57:12;2.93;;;1.93;;
14300;SDS011;7234;59.306;18.024;2024-02-21T10:59:40;4.63;;;2.00;;
14300;SDS011;7234;59.306;18.024;2024-02-21T11:02:10;3.67;;;1.90;;
14300;SDS011;7234;59.306;18.024;2024-02-21T11:04:39;4.00;;;1.93;;
14300;SDS011;7234;59.306;18.024;2024-02-21T11:07:07;2.17;;;1.77;;
14300;SDS011;7234;59.306;18.024;2024-02-21T11:09:38;3.93;;;2.20;;
14300;SDS011;7234;59.306;18.024;2024-02-21T11:12:05;5.27;;;2.30;;
14300;SDS011;7234;59.306;18.024;2024-02-21T11:14:33;4.37;;;2.20;;
14300;SDS011;7234;59.306;18.024;2024-02-21T11:17:02;3.93;;;1.83;;
14300;SDS011;7234;59.306;18.024;2024-02-21T11:19:41;3.00;;;2.20;;
14300;SDS011;7234;59.306;18.024;2024-02-21T11:22:14;4.10;;;2.20;;
14300;SDS011;7234;59.306;18.024;2024-02-21T11:24:44;3.63;;;2.10;;
14300;SDS011;7234;59.306;18.024;2024-02-21T11:27:12;2.77;;;2.20;;
14300;SDS011;7234;59.306;18.024;2024-02-21T11:29:40;3.90;;;2.43;;
14300;SDS011;7234;59.306;18.024;2024-02-21T11:32:09;4.33;;;2.60;;
14300;SDS011;7234;59.306;18.024;2024-02-21T11:34:37;4.57;;;2.77;;
14300;SDS011;7234;59.306;18.024;2024-02-21T11:37:14;4.53;;;2.50;;
14300;SDS011;7234;59.306;18.024;2024-02-21T11:39:42;4.43;;;2.40;;
14300;SDS011;7234;59.306;18.024;2024-02-21T11:42:12;4.87;;;2.60;;
14300;SDS011;7234;59.306;18.024;2024-02-21T11:44:39;2.77;;;2.47;;
14300;SDS011;7234;59.306;18.024;2024-02-21T11:47:07;5.90;;;2.40;;
14300;SDS011;7234;59.306;18.024;2024-02-21T11:49:36;4.50;;;2.40;;
14300;SDS011;7234;59.306;18.024;2024-02-21T11:52:05;3.83;;;2.87;;
14300;SDS011;7234;59.306;18.024;2024-02-21T11:54:34;5.03;;;2.70;;
14300;SDS011;7234;59.306;18.024;2024-02-21T11:57:01;4.30;;;2.90;;
14300;SDS011;7234;59.306;18.024;2024-02-21T11:59:29;6.67;;;2.93;;
14300;SDS011;7234;59.306;18.024;2024-02-21T12:01:58;5.30;;;2.83;;
14300;SDS011;7234;59.306;18.024;2024-02-21T12:04:25;6.70;;;3.37;;
14300;SDS011;7234;59.306;18.024;2024-02-21T12:06:52;5.33;;;3.10;;
14300;SDS011;7234;59.306;18.024;2024-02-21T12:09:22;4.57;;;2.80;;
14300;SDS011;7234;59.306;18.024;2024-02-21T12:12:01;5.47;;;3.07;;
14300;SDS011;7234;59.306;18.024;2024-02-21T12:14:30;4.47;;;2.87;;
14300;SDS011;7234;59.306;18.024;2024-02-21T12:16:58;7.23;;;3.00;;
14300;SDS011;7234;59.306;18.024;2024-02-21T12:19:25;4.03;;;3.20;;
14300;SDS011;7234;59.306;18.024;2024-02-21T12:21:55;4.97;;;3.10;;
14300;SDS011;7234;59.306;18.024;2024-02-21T12:24:25;4.03;;;2.87;;
14300;SDS011;7234;59.306;18.024;2024-02-21T12:26:53;5.90;;;2.90;;
14300;SDS011;7234;59.306;18.024;2024-02-21T12:29:24;5.93;;;2.80;;
14300;SDS011;7234;59.306;18.024;2024-02-21T12:31:51;6.10;;;3.57;;
14300;SDS011;7234;59.306;18.024;2024-02-21T12:34:19;4.73;;;3.23;;
14300;SDS011;7234;59.306;18.024;2024-02-21T12:36:49;4.90;;;2.70;;
14300;SDS011;7234;59.306;18.024;2024-02-21T12:39:17;4.53;;;3.13;;
14300;SDS011;7234;59.306;18.024;2024-02-21T12:41:44;4.27;;;2.80;;
14300;SDS011;7234;59.306;18.024;2024-02-21T12:44:16;4.27;;;3.00;;
14300;SDS011;7234;59.306;18.024;2024-02-21T12:46:44;5.03;;;3.03;;
14300;SDS011;7234;59.306;18.024;2024-02-21T12:49:16;3.97;;;3.13;;
14300;SDS011;7234;59.306;18.024;2024-02-21T12:51:44;6.47;;;3.43;;
14300;SDS011;7234;59.306;18.024;2024-02-21T12:54:11;6.57;;;3.00;;
14300;SDS011;7234;59.306;18.024;2024-02-21T12:56:39;4.57;;;3.10;;
14300;SDS011;7234;59.306;18.024;2024-02-21T12:59:06;5.40;;;2.73;;
14300;SDS011;7234;59.306;18.024;2024-02-21T13:01:34;4.33;;;2.77;;
14300;SDS011;7234;59.306;18.024;2024-02-21T13:04:02;4.57;;;3.03;;
14300;SDS011;7234;59.306;18.024;2024-02-21T13:06:29;5.13;;;3.23;;
14300;SDS011;7234;59.306;18.024;2024-02-21T13:08:58;4.40;;;3.20;;
14300;SDS011;7234;59.306;18.024;2024-02-21T13:11:28;5.37;;;3.63;;
14300;SDS011;7234;59.306;18.024;2024-02-21T13:13:56;5.53;;;3.80;;
14300;SDS011;7234;59.306;18.024;2024-02-21T13:16:26;4.30;;;3.03;;
14300;SDS011;7234;59.306;18.024;2024-02-21T13:18:53;5.20;;;3.10;;
14300;SDS011;7234;59.306;18.024;2024-02-21T13:21:22;5.23;;;3.60;;
14300;SDS011;7234;59.306;18.024;2024-02-21T13:23:49;5.63;;;3.37;;
14300;SDS011;7234;59.306;18.024;2024-02-21T13:26:16;7.37;;;3.57;;
14300;SDS011;7234;59.306;18.024;2024-02-21T13:28:43;5.00;;;3.63;;
14300;SDS011;7234;59.306;18.024;2024-02-21T13:31:14;7.13;;;4.20;;
14300;SDS011;7234;59.306;18.024;2024-02-21T13:33:41;5.70;;;3.27;;
14300;SDS011;7234;59.306;18.024;2024-02-21T13:36:10;4.27;;;3.30;;
14300;SDS011;7234;59.306;18.024;2024-02-21T13:38:39;7.53;;;3.80;;
14300;SDS011;7234;59.306;18.024;2024-02-21T13:41:06;5.20;;;3.17;;
14300;SDS011;7234;59.306;18.024;2024-02-21T13:43:33;5.13;;;3.43;;
14300;SDS011;7234;59.306;18.024;2024-02-21T13:46:01;4.97;;;3.30;;
14300;SDS011;7234;59.306;18.024;2024-02-21T13:48:30;5.00;;;3.50;;
14300;SDS011;7234;59.306;18.024;2024-02-21T13:50:58;5.00;;;3.90;;
14300;SDS011;7234;59.306;18.024;2024-02-21T13:53:27;6.23;;;3.80;;
14300;SDS011;7234;59.306;18.024;2024-02-21T13:55:55;5.33;;;3.73;;
14300;SDS011;7234;59.306;18.024;2024-02-21T13:58:22;5.40;;;4.07;;
14300;SDS011;7234;59.306;18.024;2024-02-21T14:00:51;5.50;;;4.00;;
14300;SDS011;7234;59.306;18.024;2024-02-21T14:03:18;6.13;;;3.93;;
14300;SDS011;7234;59.306;18.024;2024-02-21T14:05:46;6.67;;;4.60;;
14300;SDS011;7234;59.306;18.024;2024-02-21T14:08:13;8.17;;;3.90;;
14300;SDS011;7234;59.306;18.024;2024-02-21T14:10:41;6.97;;;4.33;;
14300;SDS011;7234;59.306;18.024;2024-02-21T14:13:09;8.33;;;4.00;;
14300;SDS011;7234;59.306;18.024;2024-02-21T14:15:36;6.07;;;4.13;;
14300;SDS011;7234;59.306;18.024;2024-02-21T14:18:06;6.30;;;4.03;;
14300;SDS011;7234;59.306;18.024;2024-02-21T14:20:34;6.67;;;4.00;;
14300;SDS011;7234;59.306;18.024;2024-02-21T14:23:02;6.43;;;4.43;;
14300;SDS011;7234;59.306;18.024;2024-02-21T14:25:29;4.60;;;3.90;;
14300;SDS011;7234;59.306;18.024;2024-02-21T14:27:58;8.90;;;3.90;;
14300;SDS011;7234;59.306;18.024;2024-02-21T14:30:30;6.87;;;3.87;;
14300;SDS011;7234;59.306;18.024;2024-02-21T14:32:57;6.07;;;3.77;;
14300;SDS011;7234;59.306;18.024;2024-02-21T14:35:24;4.93;;;3.70;;
14300;SDS011;7234;59.306;18.024;2024-02-21T14:37:51;4.53;;;3.37;;
14300;SDS011;7234;59.306;18.024;2024-02-21T14:40:22;4.07;;;3.20;;
14300;SDS011;7234;59.306;18.024;2024-02-21T14:42:49;4.97;;;3.43;;
14300;SDS011;7234;59.306;18.024;2024-02-21T14:45:17;3.73;;;3.07;;
14300;SDS011;7234;59.306;18.024;2024-02-21T14:47:48;5.80;;;3.53;;
14300;SDS011;7234;59.306;18.024;2024-02-21T14:50:16;5.13;;;3.37;;
14300;SDS011;7234;59.306;18.024;2024-02-21T14:52:43;5.37;;;3.30;;
14300;SDS011;7234;59.306;18.024;2024-02-21T14:55:12;4.67;;;3.30;;